createdAt,value
2023-02-11T00:01:28.922Z,70.63
2023-02-11T00:06:24.289Z,72.68
2023-02-11T00:08:51.704Z,69.40
2023-02-11T00:11:20.705Z,67.65
2023-02-11T00:13:48.397Z,68.68
2023-02-11T00:16:18.235Z,56.97
2023-02-11T00:18:45.702Z,44.58
2023-02-11T00:21:14.737Z,43.92
2023-02-11T00:23:42.528Z,45.53
2023-02-11T00:26:12.670Z,44.20
2023-02-11T00:28:40.054Z,45.53
2023-02-11T00:31:07.475Z,45.28
2023-02-11T00:33:36.106Z,38.03
2023-02-11T00:36:04.610Z,44.92
2023-02-11T00:38:33.452Z,40.22
2023-02-11T00:41:00.372Z,34.08
2023-02-11T00:43:27.645Z,46.85
2023-02-11T00:45:54.626Z,36.35
2023-02-11T00:48:21.852Z,44.00
2023-02-11T00:50:50.464Z,45.97
2023-02-11T00:53:17.786Z,41.47
2023-02-11T00:55:44.638Z,41.03
2023-02-11T00:58:11.906Z,38.90
2023-02-11T01:00:39.039Z,37.45
2023-02-11T01:03:06.865Z,46.20
2023-02-11T01:05:34.400Z,44.38
2023-02-11T01:08:03.270Z,38.97
2023-02-11T01:10:30.268Z,59.55
2023-02-11T01:12:57.444Z,50.28
2023-02-11T01:15:24.630Z,41.70
2023-02-11T01:17:52.033Z,45.33
2023-02-11T01:20:22.174Z,46.58
2023-02-11T01:22:49.376Z,42.58
2023-02-11T01:25:17.968Z,47.05
2023-02-11T01:27:45.229Z,46.05
2023-02-11T01:30:13.965Z,45.35
2023-02-11T01:32:41.374Z,48.30
2023-02-11T01:35:08.591Z,47.63
2023-02-11T01:37:36.490Z,40.45
2023-02-11T01:40:05.850Z,40.95
2023-02-11T01:42:34.418Z,45.30
2023-02-11T01:45:22.161Z,51.90
2023-02-11T01:47:49.298Z,45.70
2023-02-11T01:50:16.270Z,51.10
2023-02-11T01:52:46.296Z,49.83
2023-02-11T01:55:32.371Z,48.55
2023-02-11T01:58:05.100Z,44.33
2023-02-11T02:00:36.451Z,52.20
2023-02-11T02:03:09.825Z,46.28
2023-02-11T02:05:40.938Z,50.50
2023-02-11T02:08:15.273Z,46.28
2023-02-11T02:10:45.836Z,47.75
2023-02-11T02:13:15.118Z,53.85
2023-02-11T02:15:49.574Z,52.17
2023-02-11T02:18:31.326Z,55.55
2023-02-11T02:21:28.267Z,50.75
2023-02-11T02:24:18.993Z,56.15
2023-02-11T02:27:18.412Z,51.72
2023-02-11T02:30:09.606Z,46.80
2023-02-11T02:32:49.554Z,59.08
2023-02-11T02:35:29.641Z,59.05
2023-02-11T02:38:06.374Z,48.95
2023-02-11T02:40:41.022Z,53.72
2023-02-11T02:43:10.710Z,53.65
2023-02-11T02:45:38.013Z,54.42
2023-02-11T02:48:07.066Z,63.47
2023-02-11T02:50:36.520Z,48.85
2023-02-11T02:53:18.859Z,54.03
2023-02-11T02:55:59.139Z,56.67
2023-02-11T02:59:03.780Z,53.55
2023-02-11T03:01:40.508Z,51.70
2023-02-11T03:04:16.861Z,53.00
2023-02-11T03:06:52.446Z,51.75
2023-02-11T03:09:24.172Z,54.97
2023-02-11T03:11:51.522Z,43.00
2023-02-11T03:14:20.521Z,54.75
2023-02-11T03:16:50.211Z,49.83
2023-02-11T03:19:22.835Z,49.00
2023-02-11T03:21:52.318Z,47.05
2023-02-11T03:24:24.378Z,47.00
2023-02-11T03:26:54.165Z,42.15
2023-02-11T03:29:32.457Z,44.03
2023-02-11T03:32:04.548Z,43.72
2023-02-11T03:34:41.382Z,45.85
2023-02-11T03:37:13.672Z,35.88
2023-02-11T03:39:46.397Z,39.97
2023-02-11T03:42:15.373Z,43.88
2023-02-11T03:44:50.049Z,44.72
2023-02-11T03:47:21.264Z,37.50
2023-02-11T03:49:52.979Z,46.45
2023-02-11T03:52:22.131Z,39.20
2023-02-11T03:54:54.551Z,39.65
2023-02-11T03:57:21.759Z,31.35
2023-02-11T03:59:54.428Z,32.67
2023-02-11T04:02:23.483Z,36.25
2023-02-11T04:04:52.031Z,36.20
2023-02-11T04:07:19.280Z,38.95
2023-02-11T04:09:46.197Z,36.65
2023-02-11T04:12:13.460Z,32.25
2023-02-11T04:14:40.408Z,35.53
2023-02-11T04:17:07.642Z,41.03
2023-02-11T04:19:34.706Z,41.65
2023-02-11T04:22:03.377Z,34.10
2023-02-11T04:24:30.524Z,39.45
2023-02-11T04:26:57.800Z,50.40
2023-02-11T04:29:24.988Z,38.78
2023-02-11T04:31:52.354Z,37.97
2023-02-11T04:34:19.299Z,37.08
2023-02-11T04:36:46.514Z,40.95
2023-02-11T04:39:14.730Z,41.80
2023-02-11T04:41:42.114Z,39.60
2023-02-11T04:44:09.265Z,49.33
2023-02-11T04:46:36.708Z,35.70
2023-02-11T04:49:04.113Z,32.40
2023-02-11T04:51:31.918Z,36.63
2023-02-11T04:53:59.120Z,44.92
2023-02-11T04:56:27.833Z,47.63
2023-02-11T04:58:54.778Z,42.67
2023-02-11T05:01:22.139Z,38.13
2023-02-11T05:03:49.522Z,41.78
2023-02-11T05:06:16.950Z,38.15
2023-02-11T05:08:43.826Z,40.10
2023-02-11T05:11:16.228Z,30.45
2023-02-11T05:13:44.549Z,41.15
2023-02-11T05:16:12.744Z,30.88
2023-02-11T05:18:40.223Z,36.03
2023-02-11T05:21:08.586Z,40.53
2023-02-11T05:23:36.472Z,37.35
2023-02-11T05:26:04.469Z,37.08
2023-02-11T05:28:31.502Z,35.15
2023-02-11T05:31:02.460Z,34.28
2023-02-11T05:33:29.511Z,44.42
2023-02-11T05:35:58.836Z,46.15
2023-02-11T05:38:26.023Z,36.55
2023-02-11T05:40:53.983Z,39.67
2023-02-11T05:43:20.950Z,44.72
2023-02-11T05:45:48.748Z,44.53
2023-02-11T05:48:17.817Z,40.47
2023-02-11T05:53:12.329Z,33.72
2023-02-11T05:55:39.845Z,39.08
2023-02-11T05:58:07.951Z,36.80
2023-02-11T06:00:35.332Z,37.60
2023-02-11T06:03:04.249Z,41.65
2023-02-11T06:05:34.592Z,36.33
2023-02-11T06:08:01.532Z,34.75
2023-02-11T06:10:28.764Z,30.90
2023-02-11T06:12:55.906Z,22.02
2023-02-11T06:15:23.076Z,33.65
2023-02-11T06:17:50.010Z,39.03
2023-02-11T06:20:17.337Z,33.25
2023-02-11T06:22:45.674Z,36.65
2023-02-11T06:25:13.303Z,31.85
2023-02-11T06:27:40.452Z,30.73
2023-02-11T06:30:09.181Z,36.92
2023-02-11T06:32:44.504Z,32.53
2023-02-11T06:35:13.461Z,29.63
2023-02-11T06:37:41.118Z,32.00
2023-02-11T06:40:10.500Z,33.53
